createdAt,value
2022-08-09T00:01:55.165Z,1011.98
2022-08-09T00:04:34.588Z,1012.00
2022-08-09T00:06:59.073Z,1012.01
2022-08-09T00:09:32.085Z,1012.02
2022-08-09T00:12:05.135Z,1012.02
2022-08-09T00:14:39.350Z,1012.01
2022-08-09T00:18:05.759Z,1012.00
2022-08-09T00:19:47.906Z,1011.99
2022-08-09T00:22:18.152Z,1011.98
2022-08-09T00:24:50.047Z,1011.97
2022-08-09T00:27:23.137Z,1011.97
2022-08-09T00:30:24.566Z,1011.97
2022-08-09T00:32:29.085Z,1011.95
2022-08-09T00:35:02.082Z,1011.94
2022-08-09T00:37:35.209Z,1011.92
2022-08-09T00:40:12.113Z,1011.92
2022-08-09T00:44:13.637Z,1011.91
2022-08-09T00:45:14.956Z,1011.89
2022-08-09T00:47:47.080Z,1011.87
2022-08-09T00:50:20.178Z,1011.88
2022-08-09T00:52:53.878Z,1011.87
2022-08-09T00:56:03.886Z,1011.86
2022-08-09T00:57:59.562Z,1011.85
2022-08-09T01:00:32.152Z,1011.86
2022-08-09T01:03:05.182Z,1011.87
2022-08-09T01:05:53.222Z,1011.85
2022-08-09T01:08:11.189Z,1011.86
2022-08-09T01:10:43.877Z,1011.86
2022-08-09T01:13:17.204Z,1011.86
2022-08-09T01:15:52.499Z,1011.86
2022-08-09T01:18:30.599Z,1011.87
2022-08-09T01:20:56.139Z,1011.87
2022-08-09T01:24:01.869Z,1011.88
2022-08-09T01:26:02.184Z,1011.88
2022-08-09T01:28:35.221Z,1011.88
2022-08-09T01:31:08.200Z,1011.88
2022-08-09T01:33:41.193Z,1011.89
2022-08-09T01:36:14.244Z,1011.90
2022-08-09T01:38:47.197Z,1011.93
2022-08-09T01:41:25.660Z,1011.93
2022-08-09T01:43:53.188Z,1011.94
2022-08-09T01:46:26.922Z,1011.94
2022-08-09T01:48:59.775Z,1011.94
2022-08-09T01:51:33.072Z,1011.94
2022-08-09T01:54:05.144Z,1011.91
2022-08-09T01:56:38.243Z,1011.91
2022-08-09T01:59:11.226Z,1011.90
2022-08-09T02:01:58.304Z,1011.90
2022-08-09T02:04:17.216Z,1011.91
2022-08-09T02:06:58.406Z,1011.91
2022-08-09T02:09:23.251Z,1011.93
2022-08-09T02:11:56.975Z,1011.94
2022-08-09T02:14:29.235Z,1011.97
2022-08-09T02:17:30.830Z,1012.01
2022-08-09T02:19:39.085Z,1012.03
2022-08-09T02:22:08.216Z,1012.06
2022-08-09T02:24:41.268Z,1012.08
2022-08-09T02:27:14.282Z,1012.11
2022-08-09T02:29:46.944Z,1012.13
2022-08-09T02:32:20.257Z,1012.15
2022-08-09T02:34:55.906Z,1012.16
2022-08-09T02:37:31.469Z,1012.18
2022-08-09T02:40:01.593Z,1012.21
2022-08-09T02:42:32.538Z,1012.25
2022-08-09T02:45:06.577Z,1012.28
2022-08-09T02:47:58.134Z,1012.28
2022-08-09T02:50:11.238Z,1012.28
2022-08-09T02:52:44.265Z,1012.29
2022-08-09T02:55:21.035Z,1012.29
2022-08-09T02:58:00.331Z,1012.28
2022-08-09T03:00:25.869Z,1012.27
2022-08-09T03:03:00.487Z,1012.26
2022-08-09T03:05:29.326Z,1012.25
2022-08-09T03:08:02.296Z,1012.24
2022-08-09T03:10:35.332Z,1012.24
2022-08-09T03:13:10.072Z,1012.23
2022-08-09T03:16:06.353Z,1012.22
2022-08-09T03:18:14.368Z,1012.21
2022-08-09T03:20:47.326Z,1012.19
2022-08-09T03:23:24.387Z,1012.20
2022-08-09T03:25:58.062Z,1012.19
2022-08-09T03:28:26.359Z,1012.18
2022-08-09T03:30:59.331Z,1012.17
2022-08-09T03:33:53.529Z,1012.17
2022-08-09T03:36:15.356Z,1012.18
2022-08-09T03:38:41.826Z,1012.19
2022-08-09T03:41:15.140Z,1012.20
2022-08-09T03:44:04.004Z,1012.24
2022-08-09T03:46:20.780Z,1012.25
2022-08-09T03:48:52.392Z,1012.26
2022-08-09T03:51:56.198Z,1012.28
2022-08-09T03:53:59.028Z,1012.29
2022-08-09T03:56:31.375Z,1012.30
2022-08-09T03:59:04.418Z,1012.31
2022-08-09T04:01:37.411Z,1012.33
2022-08-09T04:04:14.661Z,1012.35
2022-08-09T04:06:43.991Z,1012.37
2022-08-09T04:09:41.628Z,1012.40
2022-08-09T04:11:49.393Z,1012.44
2022-08-09T04:14:52.951Z,1012.46
2022-08-09T04:16:57.415Z,1012.49
2022-08-09T04:19:30.057Z,1012.52
2022-08-09T04:22:01.232Z,1012.56
2022-08-09T04:24:34.268Z,1012.58
2022-08-09T04:27:10.911Z,1012.60
2022-08-09T04:29:50.104Z,1012.61
2022-08-09T04:32:23.527Z,1012.63
2022-08-09T04:34:54.345Z,1012.64
2022-08-09T04:37:23.463Z,1012.65
2022-08-09T04:39:56.441Z,1012.67
2022-08-09T04:42:29.990Z,1012.68
2022-08-09T04:45:02.487Z,1012.71
2022-08-09T04:47:58.726Z,1012.71
2022-08-09T04:50:08.474Z,1012.72
2022-08-09T04:52:41.458Z,1012.74
2022-08-09T04:55:14.494Z,1012.78
2022-08-09T04:57:54.338Z,1012.80
2022-08-09T05:00:20.548Z,1012.82
2022-08-09T05:02:53.529Z,1012.83
2022-08-09T05:05:31.728Z,1012.86
2022-08-09T05:07:59.509Z,1012.88
2022-08-09T05:10:32.420Z,1012.91
2022-08-09T05:13:05.176Z,1012.94
2022-08-09T05:15:47.616Z,1012.97
2022-08-09T05:18:37.863Z,1013.01
2022-08-09T05:20:44.223Z,1013.03
2022-08-09T05:23:54.201Z,1013.05
2022-08-09T05:25:50.994Z,1013.06
2022-08-09T05:28:23.529Z,1013.06
2022-08-09T05:30:56.555Z,1013.06
2022-08-09T05:33:32.906Z,1013.07
2022-08-09T05:36:02.565Z,1013.08
2022-08-09T05:38:35.289Z,1013.09
2022-08-09T05:41:22.316Z,1013.09
2022-08-09T05:43:55.582Z,1013.11
2022-08-09T05:46:28.537Z,1013.13
2022-08-09T05:49:01.589Z,1013.15
2022-08-09T05:51:46.079Z,1013.16
2022-08-09T05:54:07.548Z,1013.18
2022-08-09T05:56:54.831Z,1013.19
2022-08-09T05:59:13.552Z,1013.23
2022-08-09T06:01:46.596Z,1013.26
2022-08-09T06:04:23.460Z,1013.29
2022-08-09T06:06:52.522Z,1013.31
2022-08-09T06:09:53.940Z,1013.34
2022-08-09T06:11:58.561Z,1013.36
2022-08-09T06:14:31.613Z,1013.37
2022-08-09T06:17:05.185Z,1013.38
2022-08-09T06:19:37.655Z,1013.39
2022-08-09T06:22:15.517Z,1013.41
2022-08-09T06:24:43.628Z,1013.43
2022-08-09T06:27:16.640Z,1013.45
2022-08-09T06:30:04.348Z,1013.45
2022-08-09T06:32:59.408Z,1013.45
2022-08-09T06:34:55.638Z,1013.46
2022-08-09T06:37:28.898Z,1013.49
2022-08-09T06:40:16.325Z,1013.50
2022-08-09T06:42:34.763Z,1013.51
2022-08-09T06:46:03.459Z,1013.52
2022-08-09T06:47:42.000Z,1013.52
2022-08-09T06:50:19.181Z,1013.55
2022-08-09T06:52:47.281Z,1013.57
2022-08-09T06:55:22.330Z,1013.60
2022-08-09T06:58:02.735Z,1013.61
2022-08-09T07:00:52.035Z,1013.64
2022-08-09T07:02:58.648Z,1013.64
2022-08-09T07:05:53.676Z,1013.66
2022-08-09T07:08:04.724Z,1013.67
2022-08-09T07:10:37.716Z,1013.68
2022-08-09T07:13:27.741Z,1013.70
2022-08-09T07:16:34.844Z,1013.71
2022-08-09T07:18:16.722Z,1013.71
2022-08-09T07:20:49.679Z,1013.72
2022-08-09T07:23:22.899Z,1013.74
2022-08-09T07:26:02.848Z,1013.74
2022-08-09T07:28:28.693Z,1013.76
2022-08-09T07:31:01.713Z,1013.76
2022-08-09T07:33:52.909Z,1013.78
2022-08-09T07:36:07.683Z,1013.79
2022-08-09T07:38:40.697Z,1013.80
2022-08-09T07:41:13.845Z,1013.81
2022-08-09T07:43:50.026Z,1013.81
2022-08-09T07:46:19.737Z,1013.81
2022-08-09T07:48:59.434Z,1013.82
2022-08-09T07:52:03.668Z,1013.83
2022-08-09T07:54:12.672Z,1013.82
2022-08-09T07:56:49.104Z,1013.82
2022-08-09T07:59:34.634Z,1013.81
2022-08-09T08:01:53.111Z,1013.81
2022-08-09T08:04:31.804Z,1013.81
2022-08-09T08:07:00.166Z,1013.80
2022-08-09T08:09:38.629Z,1013.80
2022-08-09T08:12:24.048Z,1013.80
2022-08-09T08:14:36.685Z,1013.80
2022-08-09T08:17:12.093Z,1013.80
2022-08-09T08:19:42.600Z,1013.81
2022-08-09T08:22:15.552Z,1013.83
2022-08-09T08:24:49.213Z,1013.83
2022-08-09T08:27:22.786Z,1013.84
2022-08-09T08:29:55.471Z,1013.84
2022-08-09T08:32:29.871Z,1013.84
2022-08-09T08:35:01.536Z,1013.85
2022-08-09T08:37:41.912Z,1013.85
2022-08-09T08:40:07.853Z,1013.84
2022-08-09T08:42:40.686Z,1013.83
2022-08-09T08:45:14.046Z,1013.82
2022-08-09T08:47:46.839Z,1013.81
2022-08-09T08:50:19.897Z,1013.80
2022-08-09T08:52:59.485Z,1013.82
2022-08-09T08:55:25.779Z,1013.81
2022-08-09T08:57:58.846Z,1013.81
2022-08-09T09:00:34.312Z,1013.83
2022-08-09T09:03:11.812Z,1013.85
2022-08-09T09:05:58.973Z,1013.86
2022-08-09T09:08:29.764Z,1013.87
2022-08-09T09:10:43.591Z,1013.86
2022-08-09T09:13:16.899Z,1013.84
2022-08-09T09:15:49.610Z,1013.84
2022-08-09T09:18:22.874Z,1013.85
2022-08-09T09:20:55.827Z,1013.82
2022-08-09T09:23:37.618Z,1013.82
2022-08-09T09:26:12.260Z,1013.80
2022-08-09T09:29:02.236Z,1013.79
2022-08-09T09:31:07.543Z,1013.76
2022-08-09T09:33:44.394Z,1013.73
2022-08-09T09:36:20.851Z,1013.72
2022-08-09T09:38:46.884Z,1013.70
2022-08-09T09:41:19.895Z,1013.66
2022-08-09T09:44:11.598Z,1013.63
2022-08-09T09:46:54.785Z,1013.60
2022-08-09T09:48:58.862Z,1013.57
2022-08-09T09:51:38.171Z,1013.55
2022-08-09T09:54:09.404Z,1013.52
2022-08-09T09:56:37.725Z,1013.48
2022-08-09T09:59:10.576Z,1013.42
2022-08-09T10:01:47.329Z,1013.39
2022-08-09T10:04:23.111Z,1013.37
2022-08-09T10:06:54.459Z,1013.34
2022-08-09T10:09:25.596Z,1013.34
2022-08-09T10:12:43.627Z,1013.32
2022-08-09T10:14:48.522Z,1013.32
2022-08-09T10:17:39.151Z,1013.33
2022-08-09T10:19:53.124Z,1013.34
2022-08-09T10:22:29.485Z,1013.34
2022-08-09T10:24:57.711Z,1013.33
2022-08-09T10:27:34.686Z,1013.33
2022-08-09T10:30:49.491Z,1013.33
2022-08-09T10:32:42.421Z,1013.31
2022-08-09T10:35:09.730Z,1013.32
2022-08-09T10:37:42.840Z,1013.31
2022-08-09T10:40:33.363Z,1013.30
2022-08-09T10:42:48.930Z,1013.27
2022-08-09T10:45:22.006Z,1013.25
2022-08-09T10:48:20.157Z,1013.21
2022-08-09T10:50:31.188Z,1013.20
2022-08-09T10:53:01.036Z,1013.17
2022-08-09T10:55:49.197Z,1013.16
2022-08-09T10:58:06.665Z,1013.14
2022-08-09T11:00:51.099Z,1013.13
2022-08-09T11:03:19.382Z,1013.13
2022-08-09T11:05:59.928Z,1013.10
2022-08-09T11:08:19.011Z,1013.10
2022-08-09T11:10:54.445Z,1013.10
2022-08-09T11:13:50.530Z,1013.11
2022-08-09T11:16:04.781Z,1013.11
2022-08-09T11:18:30.705Z,1013.11
2022-08-09T11:21:03.985Z,1013.15
2022-08-09T11:23:36.841Z,1013.14
2022-08-09T11:26:09.753Z,1013.16
2022-08-09T11:28:54.330Z,1013.18
2022-08-09T11:31:15.869Z,1013.17
2022-08-09T11:33:51.166Z,1013.17
2022-08-09T11:36:35.647Z,1013.16
2022-08-09T11:38:54.902Z,1013.17
2022-08-09T11:41:27.713Z,1013.15
2022-08-09T11:44:00.886Z,1013.16
2022-08-09T11:46:33.863Z,1013.15
2022-08-09T11:49:06.759Z,1013.16
2022-08-09T11:53:16.262Z,1013.17
2022-08-09T11:54:13.822Z,1013.15
2022-08-09T11:56:47.690Z,1013.16
2022-08-09T11:59:18.829Z,1013.15
2022-08-09T12:02:15.914Z,1013.15
2022-08-09T12:04:32.273Z,1013.15
2022-08-09T12:06:57.926Z,1013.12
2022-08-09T12:09:33.808Z,1013.09
2022-08-09T12:12:04.341Z,1013.09
2022-08-09T12:14:59.133Z,1013.08
2022-08-09T12:17:27.860Z,1013.08
2022-08-09T12:19:42.961Z,1013.07
2022-08-09T12:22:15.878Z,1013.06
2022-08-09T12:24:48.827Z,1013.03
2022-08-09T12:29:11.253Z,1013.00
2022-08-09T12:30:36.561Z,1012.97
2022-08-09T12:32:41.922Z,1012.94
2022-08-09T12:35:19.173Z,1012.91
2022-08-09T12:37:50.351Z,1012.88
2022-08-09T12:40:20.952Z,1012.84
2022-08-09T12:42:53.830Z,1012.83
2022-08-09T12:45:34.983Z,1012.82
2022-08-09T12:48:00.114Z,1012.83
2022-08-09T12:50:32.935Z,1012.86
2022-08-09T12:53:18.392Z,1012.86
2022-08-09T12:56:14.197Z,1012.84
2022-08-09T12:58:11.839Z,1012.81
2022-08-09T13:00:46.041Z,1012.78
2022-08-09T13:03:24.576Z,1012.77
2022-08-09T13:06:16.005Z,1012.75
2022-08-09T13:08:39.565Z,1012.74
2022-08-09T13:10:57.016Z,1012.72
2022-08-09T13:13:38.276Z,1012.73
2022-08-09T13:16:03.189Z,1012.73
2022-08-09T13:18:35.973Z,1012.70
2022-08-09T13:22:35.261Z,1012.67
2022-08-09T13:24:15.751Z,1012.66
2022-08-09T13:26:14.856Z,1012.65
2022-08-09T13:28:48.123Z,1012.63
2022-08-09T13:32:15.020Z,1012.61
2022-08-09T13:33:54.561Z,1012.58
2022-08-09T13:36:40.956Z,1012.55
2022-08-09T13:39:06.103Z,1012.53
2022-08-09T13:41:57.132Z,1012.52
2022-08-09T13:44:20.150Z,1012.51
2022-08-09T13:47:27.568Z,1012.52
2022-08-09T13:49:31.940Z,1012.51
2022-08-09T13:52:01.165Z,1012.49
2022-08-09T13:54:32.061Z,1012.47
2022-08-09T13:57:06.415Z,1012.45
2022-08-09T13:59:42.042Z,1012.44
2022-08-09T14:02:11.044Z,1012.41
2022-08-09T14:04:49.552Z,1012.38
2022-08-09T14:07:17.058Z,1012.36
2022-08-09T14:09:50.166Z,1012.35
2022-08-09T14:12:23.893Z,1012.35
2022-08-09T14:14:56.447Z,1012.36
2022-08-09T14:17:32.667Z,1012.35
2022-08-09T14:20:01.926Z,1012.33
2022-08-09T14:22:35.290Z,1012.31
2022-08-09T14:25:10.166Z,1012.30
2022-08-09T14:27:58.252Z,1012.27
2022-08-09T14:30:34.647Z,1012.26
2022-08-09T14:32:47.294Z,1012.25
2022-08-09T14:35:20.075Z,1012.25
2022-08-09T14:38:02.147Z,1012.24
2022-08-09T14:40:37.914Z,1012.21
2022-08-09T14:42:58.997Z,1012.19
2022-08-09T14:47:00.748Z,1012.18
2022-08-09T14:48:05.199Z,1012.20
2022-08-09T14:50:38.125Z,1012.19
2022-08-09T14:53:12.074Z,1012.18
2022-08-09T14:55:49.889Z,1012.16
2022-08-09T14:58:17.266Z,1012.13
2022-08-09T15:00:51.096Z,1012.11
2022-08-09T15:03:28.933Z,1012.08
2022-08-09T15:06:04.965Z,1012.06
2022-08-09T15:08:38.232Z,1012.06
2022-08-09T15:11:11.069Z,1012.06
2022-08-09T15:13:48.655Z,1012.03
2022-08-09T15:16:17.118Z,1012.02
2022-08-09T15:18:50.067Z,1012.00
2022-08-09T15:21:54.982Z,1011.99
2022-08-09T15:24:08.994Z,1011.98
2022-08-09T15:26:35.169Z,1011.96
2022-08-09T15:29:08.251Z,1011.96
2022-08-09T15:31:44.800Z,1011.95
2022-08-09T15:34:32.933Z,1011.93
2022-08-09T15:36:48.067Z,1011.92
2022-08-09T15:39:20.274Z,1011.90
2022-08-09T15:41:53.178Z,1011.89
2022-08-09T15:44:26.105Z,1011.89
2022-08-09T15:46:59.373Z,1011.86
2022-08-09T15:49:32.068Z,1011.85
2022-08-09T15:52:06.238Z,1011.84
2022-08-09T15:54:44.824Z,1011.83
2022-08-09T15:57:11.085Z,1011.82
2022-08-09T15:59:48.774Z,1011.79
2022-08-09T16:02:17.533Z,1011.77
2022-08-09T16:04:51.105Z,1011.76
2022-08-09T16:07:25.818Z,1011.76
2022-08-09T16:10:04.487Z,1011.76
2022-08-09T16:12:31.097Z,1011.76
2022-08-09T16:15:03.380Z,1011.75
2022-08-09T16:17:36.416Z,1011.73
2022-08-09T16:20:09.468Z,1011.74
2022-08-09T16:22:48.607Z,1011.72
2022-08-09T16:25:15.699Z,1011.71
2022-08-09T16:27:51.349Z,1011.71
2022-08-09T16:30:29.406Z,1011.69
2022-08-09T16:32:54.735Z,1011.67
2022-08-09T16:35:53.255Z,1011.66
2022-08-09T16:38:00.331Z,1011.65
2022-08-09T16:40:40.930Z,1011.65
2022-08-09T16:43:06.154Z,1011.64
2022-08-09T16:45:43.665Z,1011.63
2022-08-09T16:48:38.091Z,1011.63
2022-08-09T16:50:49.653Z,1011.64
2022-08-09T16:53:18.297Z,1011.63
2022-08-09T16:56:00.550Z,1011.63
2022-08-09T16:58:24.206Z,1011.63
2022-08-09T17:00:57.270Z,1011.64
2022-08-09T17:03:30.190Z,1011.65
2022-08-09T17:06:28.407Z,1011.66
2022-08-09T17:08:44.097Z,1011.66
2022-08-09T17:11:09.212Z,1011.66
2022-08-09T17:13:45.061Z,1011.68
2022-08-09T17:16:15.374Z,1011.70
2022-08-09T17:18:48.191Z,1011.70
2022-08-09T17:21:21.344Z,1011.71
2022-08-09T17:24:21.231Z,1011.71
2022-08-09T17:26:37.891Z,1011.72
2022-08-09T17:29:00.313Z,1011.72
2022-08-09T17:31:40.177Z,1011.72
2022-08-09T17:34:06.232Z,1011.73
2022-08-09T17:36:39.222Z,1011.76
2022-08-09T17:39:12.297Z,1011.75
2022-08-09T17:41:45.372Z,1011.75
2022-08-09T17:44:42.383Z,1011.75
2022-08-09T17:46:55.273Z,1011.77
2022-08-09T17:49:24.315Z,1011.79
2022-08-09T17:51:57.385Z,1011.80
2022-08-09T17:54:30.478Z,1011.81
2022-08-09T17:57:03.247Z,1011.80
2022-08-09T17:59:38.371Z,1011.82
2022-08-09T18:02:12.864Z,1011.83
2022-08-09T18:04:42.365Z,1011.84
2022-08-09T18:07:23.193Z,1011.86
2022-08-09T18:10:04.555Z,1011.87
2022-08-09T18:12:21.429Z,1011.90
2022-08-09T18:14:56.652Z,1011.92
2022-08-09T18:18:01.595Z,1011.93
2022-08-09T18:20:54.929Z,1011.94
2022-08-09T18:22:34.006Z,1011.95
2022-08-09T18:25:06.309Z,1011.95
2022-08-09T18:28:02.389Z,1011.95
2022-08-09T18:30:36.115Z,1011.97
2022-08-09T18:32:45.490Z,1011.99
2022-08-09T18:35:18.376Z,1012.00
2022-08-09T18:37:54.526Z,1012.01
2022-08-09T18:40:26.903Z,1012.01
2022-08-09T18:42:57.614Z,1012.02
2022-08-09T18:46:51.210Z,1012.03
2022-08-09T18:48:03.313Z,1012.03
2022-08-09T18:50:36.499Z,1012.04
2022-08-09T18:53:13.552Z,1012.05
2022-08-09T18:55:56.489Z,1012.06
2022-08-09T18:58:19.901Z,1012.08
2022-08-09T19:00:48.614Z,1012.10
2022-08-09T19:03:21.363Z,1012.13
2022-08-09T19:06:04.016Z,1012.14
2022-08-09T19:08:28.043Z,1012.16
2022-08-09T19:11:00.372Z,1012.17
2022-08-09T19:13:38.321Z,1012.18
2022-08-09T19:16:06.370Z,1012.20
2022-08-09T19:18:43.718Z,1012.23
2022-08-09T19:21:15.312Z,1012.24
2022-08-09T19:24:37.482Z,1012.27
2022-08-09T19:26:29.037Z,1012.29
2022-08-09T19:28:54.536Z,1012.30
2022-08-09T19:31:27.551Z,1012.31
2022-08-09T19:34:00.561Z,1012.33
2022-08-09T19:36:33.482Z,1012.35
2022-08-09T19:39:06.592Z,1012.37
2022-08-09T19:41:42.326Z,1012.39
2022-08-09T19:44:12.401Z,1012.42
2022-08-09T19:46:50.095Z,1012.44
2022-08-09T19:50:10.380Z,1012.45
2022-08-09T19:51:55.503Z,1012.46
2022-08-09T19:54:24.953Z,1012.48
2022-08-09T19:56:57.419Z,1012.50
2022-08-09T19:59:58.828Z,1012.51
2022-08-09T20:02:14.894Z,1012.53
2022-08-09T20:04:40.822Z,1012.54
2022-08-09T20:07:09.434Z,1012.57
2022-08-09T20:09:44.798Z,1012.59
2022-08-09T20:12:27.444Z,1012.61
2022-08-09T20:14:51.970Z,1012.62
2022-08-09T20:17:23.438Z,1012.65
2022-08-09T20:19:56.600Z,1012.68
2022-08-09T20:22:32.190Z,1012.70
2022-08-09T20:25:02.478Z,1012.70
2022-08-09T20:27:35.440Z,1012.70
2022-08-09T20:30:08.470Z,1012.69
2022-08-09T20:32:45.493Z,1012.69
2022-08-09T20:35:15.835Z,1012.68
2022-08-09T20:38:22.564Z,1012.68
2022-08-09T20:40:27.139Z,1012.69
2022-08-09T20:43:00.216Z,1012.70
2022-08-09T20:45:56.850Z,1012.72
2022-08-09T20:47:59.620Z,1012.74
2022-08-09T20:50:48.450Z,1012.73
2022-08-09T20:53:05.499Z,1012.74
2022-08-09T20:55:47.207Z,1012.74
2022-08-09T20:58:20.547Z,1012.75
2022-08-09T21:00:49.586Z,1012.76
2022-08-09T21:03:19.845Z,1012.76
2022-08-09T21:05:58.774Z,1012.79
2022-08-09T21:08:36.130Z,1012.80
2022-08-09T21:10:58.615Z,1012.81
2022-08-09T21:13:58.044Z,1012.81
2022-08-09T21:16:04.890Z,1012.81
2022-08-09T21:20:04.253Z,1012.80
2022-08-09T21:21:17.576Z,1012.79
2022-08-09T21:23:47.886Z,1012.79
2022-08-09T21:26:16.883Z,1012.79
2022-08-09T21:28:55.818Z,1012.80
2022-08-09T21:31:22.842Z,1012.81
2022-08-09T21:33:56.672Z,1012.82
2022-08-09T21:36:29.759Z,1012.83
2022-08-09T21:39:01.851Z,1012.85
2022-08-09T21:42:03.590Z,1012.86
2022-08-09T21:44:07.907Z,1012.87
2022-08-09T21:46:40.869Z,1012.89
2022-08-09T21:49:13.851Z,1012.90
2022-08-09T21:51:46.877Z,1012.90
2022-08-09T21:54:19.895Z,1012.91
2022-08-09T21:56:54.921Z,1012.91
2022-08-09T21:59:25.901Z,1012.92
2022-08-09T22:02:04.956Z,1012.94
2022-08-09T22:04:56.991Z,1012.94
2022-08-09T22:07:14.266Z,1012.93
2022-08-09T22:09:43.934Z,1012.94
2022-08-09T22:12:18.446Z,1012.93
2022-08-09T22:14:49.921Z,1012.95
2022-08-09T22:17:22.959Z,1012.94
2022-08-09T22:19:58.877Z,1012.95
2022-08-09T22:22:28.918Z,1012.95
2022-08-09T22:26:07.517Z,1012.95
2022-08-09T22:27:36.267Z,1012.96
2022-08-09T22:30:07.939Z,1012.97
2022-08-09T22:32:40.889Z,1012.99
2022-08-09T22:36:00.170Z,1013.01
2022-08-09T22:37:46.962Z,1013.02
2022-08-09T22:40:20.568Z,1013.05
2022-08-09T22:42:53.028Z,1013.05
2022-08-09T22:48:11.600Z,1013.06
2022-08-09T22:48:16.014Z,1013.06
2022-08-09T22:50:31.964Z,1013.05
2022-08-09T22:53:05.054Z,1013.06
2022-08-09T22:56:06.050Z,1013.07
2022-08-09T22:58:10.973Z,1013.08
2022-08-09T23:00:43.739Z,1013.07
2022-08-09T23:03:16.913Z,1013.07
2022-08-09T23:05:50.021Z,1013.05
2022-08-09T23:08:29.659Z,1013.03
2022-08-09T23:10:55.972Z,1013.03
2022-08-09T23:13:29.019Z,1013.03
2022-08-09T23:16:03.421Z,1013.02
2022-08-09T23:18:35.030Z,1013.01
2022-08-09T23:21:08.038Z,1012.98
2022-08-09T23:23:41.002Z,1012.98
2022-08-09T23:26:13.967Z,1012.95
2022-08-09T23:28:47.052Z,1012.94
2022-08-09T23:31:20.037Z,1012.94
2022-08-09T23:33:53.022Z,1012.93
2022-08-09T23:36:26.060Z,1012.92
2022-08-09T23:38:58.987Z,1012.90
2022-08-09T23:41:32.048Z,1012.88
2022-08-09T23:44:04.992Z,1012.88
2022-08-09T23:46:38.058Z,1012.86
2022-08-09T23:49:11.010Z,1012.87
2022-08-09T23:51:44.052Z,1012.87
2022-08-09T23:54:17.046Z,1012.87
2022-08-09T23:56:54.424Z,1012.86
2022-08-09T23:59:23.046Z,1012.83
